Bujumbura, Bujumbura International Airport (HBBA)

NameBujumbura International Airport
CityBujumbura
CountryBurundi
ICAOHBBA
IATABJM
Altitude787 m
CoordinatesGoogle Map
Live Air TrafficLiveATC.net
METARHBBA 301800Z 00000KT CAVOK 23/21 Q1013 NOSIG
2019-10-30 18:00:00 Wind: North (0°) 0 m/s - Visibility: > 10000 m - Weather: CAVOK - Temperature: 23 °C - Dew point: 21 °C - Humidity: 88.6% - Pressure: 1013 hPa
Statistics

The table below shows the detailed information of all flights to/from Bujumbura, Bujumbura International Airport (HBBA).